Time;durP1;ratioP1;P1;durP2;ratioP2;P2;SDS_P1;SDS_P2;PMS_P1;PMS_P2;Temp;Humidity;BMP_temperature;BMP_pressure;BME280_temperature;BME280_humidity;BME280_pressure;Samples;Min_cycle;Max_cycle;Signal;HPM_P1;HPM_P2
2021/03/01 00:00:22;;;;;;;3.17;1.60;;;5.00;85.10;;;;;;4995548;28;20400;-74
2021/03/01 00:02:48;;;;;;;3.10;1.27;;;5.10;85.10;;;;;;4994832;28;20129;-73
2021/03/01 00:05:14;;;;;;;4.18;1.65;;;5.10;85.10;;;;;;4977830;28;20501;-73
2021/03/01 00:07:41;;;;;;;3.85;1.63;;;5.10;85.20;;;;;;4995158;28;20039;-74
2021/03/01 00:10:08;;;;;;;3.58;1.88;;;5.00;85.10;;;;;;4977545;28;20050;-73
2021/03/01 00:12:35;;;;;;;4.93;1.98;;;5.10;85.20;;;;;;4994833;28;20137;-73
2021/03/01 00:15:01;;;;;;;4.25;2.17;;;5.10;85.20;;;;;;4994875;28;20069;-75
2021/03/01 00:17:27;;;;;;;4.43;2.08;;;5.00;85.20;;;;;;4994767;28;20442;-74
2021/03/01 00:19:53;;;;;;;3.40;1.60;;;5.10;85.30;;;;;;4976975;28;20058;-73
2021/03/01 00:22:18;;;;;;;3.58;1.70;;;5.10;85.30;;;;;;4995186;28;20508;-74
2021/03/01 00:24:44;;;;;;;4.53;1.80;;;5.10;85.30;;;;;;4994654;28;20074;-73
2021/03/01 00:27:10;;;;;;;3.50;1.65;;;5.20;85.40;;;;;;4977240;28;20089;-73
2021/03/01 00:29:36;;;;;;;3.60;1.55;;;5.20;85.40;;;;;;4994780;28;20109;-74
2021/03/01 00:32:01;;;;;;;3.75;1.70;;;5.20;85.40;;;;;;4994558;28;20455;-74
2021/03/01 00:34:27;;;;;;;5.60;1.90;;;5.20;85.40;;;;;;4994793;28;20500;-73
2021/03/01 00:36:53;;;;;;;4.95;1.85;;;5.20;85.40;;;;;;4994452;28;20034;-73
2021/03/01 00:39:19;;;;;;;4.95;2.00;;;5.20;85.40;;;;;;4994857;28;20486;-74
2021/03/01 00:41:44;;;;;;;5.05;2.10;;;5.20;85.40;;;;;;4977058;28;20049;-73
2021/03/01 00:44:10;;;;;;;3.85;1.70;;;5.20;85.40;;;;;;4976731;28;20137;-74
2021/03/01 00:46:36;;;;;;;4.97;2.13;;;5.20;85.50;;;;;;4994314;28;20073;-73
2021/03/01 00:49:02;;;;;;;4.55;1.83;;;5.30;85.60;;;;;;4976887;28;20404;-73
2021/03/01 00:51:27;;;;;;;5.35;2.22;;;5.20;85.50;;;;;;4994217;28;20137;-74
2021/03/01 00:53:53;;;;;;;5.05;2.00;;;5.20;85.50;;;;;;4994312;28;20053;-75
2021/03/01 00:56:19;;;;;;;3.95;1.73;;;5.10;85.50;;;;;;4994598;28;20050;-74
2021/03/01 00:58:44;;;;;;;4.53;1.92;;;5.20;85.60;;;;;;4994210;28;20484;-74
2021/03/01 01:01:13;;;;;;;4.75;2.05;;;5.20;85.60;;;;;;4994075;28;20046;-73
2021/03/01 01:03:38;;;;;;;4.95;2.10;;;5.20;85.70;;;;;;4976749;28;20050;-74
2021/03/01 01:06:04;;;;;;;5.05;2.13;;;5.20;85.70;;;;;;4994392;28;20038;-74
2021/03/01 01:08:30;;;;;;;3.90;1.85;;;5.20;85.70;;;;;;4976461;28;20038;-74
2021/03/01 01:10:56;;;;;;;5.35;2.30;;;5.30;85.80;;;;;;4994047;28;20057;-74
2021/03/01 01:13:22;;;;;;;3.97;1.80;;;5.30;85.80;;;;;;4994185;28;20484;-74
2021/03/01 01:15:47;;;;;;;3.58;1.60;;;5.20;85.80;;;;;;4993960;28;20069;-74
2021/03/01 01:18:13;;;;;;;4.10;1.70;;;5.20;85.80;;;;;;4976385;28;20042;-74
2021/03/01 01:20:38;;;;;;;4.63;1.75;;;5.30;85.80;;;;;;4994102;28;20527;-74
2021/03/01 01:23:04;;;;;;;5.53;1.90;;;5.30;85.80;;;;;;4993998;28;20042;-75
2021/03/01 01:25:30;;;;;;;4.63;1.80;;;5.30;85.90;;;;;;4993815;28;20043;-73
2021/03/01 01:27:56;;;;;;;5.68;2.15;;;5.30;85.80;;;;;;4994254;28;20039;-73
2021/03/01 01:30:24;;;;;;;5.95;2.30;;;5.30;85.80;;;;;;4976412;28;20059;-74
2021/03/01 01:32:51;;;;;;;7.68;2.60;;;5.30;85.90;;;;;;4993666;28;20401;-73
2021/03/01 01:35:18;;;;;;;4.95;2.15;;;5.20;85.80;;;;;;4992335;28;20053;-73
2021/03/01 01:37:44;;;;;;;5.85;2.22;;;5.20;85.90;;;;;;4993982;28;20050;-74
2021/03/01 01:40:13;;;;;;;4.60;1.90;;;5.20;85.90;;;;;;4992302;28;20049;-75
2021/03/01 01:42:39;;;;;;;4.68;2.10;;;5.20;85.90;;;;;;4993274;28;20077;-75
2021/03/01 01:45:10;;;;;;;5.63;2.38;;;5.20;86.50;;;;;;4994077;28;20049;-75
2021/03/01 01:47:36;;;;;;;4.90;2.35;;;5.20;86.00;;;;;;4993454;28;20121;-75
2021/03/01 01:50:04;;;;;;;4.13;2.00;;;5.20;85.90;;;;;;4976430;28;20081;-74
2021/03/01 01:52:30;;;;;;;4.40;1.88;;;5.20;86.00;;;;;;4993491;28;20134;-73
2021/03/01 01:54:56;;;;;;;5.22;2.10;;;5.20;86.00;;;;;;4975369;28;20054;-75
2021/03/01 01:57:23;;;;;;;4.10;1.80;;;5.20;86.10;;;;;;4993280;28;20046;-76
2021/03/01 01:59:49;;;;;;;3.55;1.60;;;5.30;86.10;;;;;;4993576;28;20038;-75
2021/03/01 02:02:15;;;;;;;4.30;1.70;;;5.20;86.10;;;;;;4993832;28;20053;-76
2021/03/01 02:04:46;;;;;;;3.80;1.63;;;5.30;86.10;;;;;;4975657;28;20034;-76
2021/03/01 02:07:35;;;;;;;3.85;1.70;;;5.30;86.20;;;;;;4993148;28;20465;-74
2021/03/01 02:10:10;;;;;;;4.05;1.77;;;5.30;86.20;;;;;;4975438;28;20042;-75
2021/03/01 02:13:08;;;;;;;4.20;1.90;;;5.30;86.10;;;;;;4992998;28;20031;-76
2021/03/01 02:15:43;;;;;;;2.85;1.55;;;5.30;86.20;;;;;;4975252;28;20146;-74
2021/03/01 02:18:10;;;;;;;3.03;1.67;;;5.30;86.20;;;;;;4993095;28;20385;-76
2021/03/01 02:20:44;;;;;;;4.20;2.00;;;5.30;86.20;;;;;;4993408;28;20035;-76
2021/03/01 02:23:11;;;;;;;3.47;1.52;;;5.30;86.20;;;;;;4991680;28;20396;-75
2021/03/01 02:25:43;;;;;;;3.42;1.65;;;5.30;86.20;;;;;;4975980;28;20042;-75
2021/03/01 02:28:12;;;;;;;3.83;1.67;;;5.40;86.30;;;;;;4991424;28;20080;-75
2021/03/01 02:30:42;;;;;;;3.80;1.75;;;5.30;86.20;;;;;;4975403;28;20050;-74
2021/03/01 02:33:16;;;;;;;4.03;1.75;;;5.40;86.20;;;;;;4992719;28;20504;-76
2021/03/01 02:35:47;;;;;;;4.55;1.98;;;5.30;86.20;;;;;;4993210;28;20125;-76
2021/03/01 02:38:15;;;;;;;3.38;1.58;;;5.30;86.20;;;;;;4992841;28;20042;-75
2021/03/01 02:40:42;;;;;;;5.55;2.28;;;5.20;86.20;;;;;;4975794;28;20035;-74
2021/03/01 02:43:09;;;;;;;4.57;2.10;;;5.20;86.20;;;;;;4975084;28;20070;-73
2021/03/01 02:45:35;;;;;;;5.07;2.13;;;5.20;86.20;;;;;;4974942;28;20046;-74
2021/03/01 02:48:02;;;;;;;5.38;2.20;;;5.20;86.30;;;;;;4992513;28;20042;-74
2021/03/01 02:50:30;;;;;;;4.45;1.88;;;5.30;86.40;;;;;;4975215;28;20065;-73
2021/03/01 02:52:57;;;;;;;5.43;2.10;;;5.20;86.30;;;;;;4973090;28;20064;-74
2021/03/01 02:55:23;;;;;;;4.50;2.22;;;5.20;86.30;;;;;;4974864;28;20046;-74
2021/03/01 02:57:51;;;;;;;4.80;1.92;;;5.20;86.30;;;;;;4959299;28;20094;-75
2021/03/01 03:00:18;;;;;;;4.03;1.85;;;5.20;86.40;;;;;;4992168;28;20081;-74
2021/03/01 03:02:47;;;;;;;4.30;1.90;;;5.20;86.40;;;;;;4990800;28;20026;-76
2021/03/01 03:05:13;;;;;;;4.28;1.90;;;5.10;86.30;;;;;;4992224;28;20038;-73
2021/03/01 03:07:42;;;;;;;4.55;1.95;;;5.20;86.50;;;;;;4992731;28;20085;-74
2021/03/01 03:10:08;;;;;;;4.40;1.80;;;5.20;86.50;;;;;;4992037;28;20042;-73
2021/03/01 03:12:38;;;;;;;4.80;2.10;;;5.20;86.50;;;;;;4975477;28;20057;-73
2021/03/01 03:15:05;;;;;;;5.18;2.10;;;5.20;86.50;;;;;;4992016;28;20074;-74
2021/03/01 03:17:33;;;;;;;4.22;2.03;;;5.20;86.50;;;;;;4992113;28;20084;-74
2021/03/01 03:20:01;;;;;;;4.22;1.92;;;5.20;86.60;;;;;;4992075;28;20097;-74
2021/03/01 03:22:27;;;;;;;4.32;1.80;;;5.20;86.60;;;;;;4992252;28;20440;-74
2021/03/01 03:24:52;;;;;;;5.50;2.22;;;5.20;86.60;;;;;;4974906;28;20049;-74
2021/03/01 03:27:18;;;;;;;4.57;1.60;;;5.20;86.50;;;;;;4974703;28;20078;-73
2021/03/01 03:29:44;;;;;;;3.17;1.48;;;5.20;86.50;;;;;;4991927;28;20089;-73
2021/03/01 03:32:10;;;;;;;4.00;1.70;;;5.20;86.60;;;;;;4992133;28;20047;-74
2021/03/01 03:34:36;;;;;;;4.13;1.65;;;5.10;86.60;;;;;;4992160;28;20039;-74
2021/03/01 03:37:09;;;;;;;3.92;1.75;;;5.10;86.60;;;;;;4991757;28;20488;-73
2021/03/01 03:39:39;;;;;;;4.50;1.85;;;5.10;86.70;;;;;;4974223;28;20046;-73
2021/03/01 03:42:06;;;;;;;3.80;1.70;;;5.10;86.70;;;;;;4991712;28;20042;-73
2021/03/01 03:44:36;;;;;;;4.43;1.83;;;5.10;86.70;;;;;;4974273;28;20125;-73
2021/03/01 03:47:05;;;;;;;3.40;1.60;;;5.10;86.80;;;;;;4991720;28;20046;-74
2021/03/01 03:49:32;;;;;;;3.72;1.60;;;5.10;86.80;;;;;;4991956;28;20037;-74
2021/03/01 03:52:00;;;;;;;4.15;1.77;;;5.00;86.70;;;;;;4992265;28;20043;-74
2021/03/01 03:54:29;;;;;;;3.20;1.40;;;5.00;86.80;;;;;;4991532;28;20485;-73
2021/03/01 03:56:56;;;;;;;3.42;1.52;;;5.00;86.90;;;;;;4991833;28;20069;-74
2021/03/01 03:59:27;;;;;;;2.65;1.50;;;4.90;86.90;;;;;;4991607;28;20034;-73
2021/03/01 04:01:55;;;;;;;2.57;1.50;;;5.00;86.90;;;;;;4991591;28;20046;-73
2021/03/01 04:04:23;;;;;;;2.60;1.30;;;5.10;87.00;;;;;;4991733;28;20297;-73
2021/03/01 04:06:51;;;;;;;2.83;1.27;;;5.00;86.90;;;;;;4974309;28;20504;-74
2021/03/01 04:09:20;;;;;;;2.58;1.27;;;5.10;86.90;;;;;;4991545;28;20553;-74
2021/03/01 04:11:48;;;;;;;2.88;1.33;;;5.10;86.90;;;;;;4990262;28;20050;-74
2021/03/01 04:14:20;;;;;;;2.88;1.55;;;5.10;86.90;;;;;;4991543;28;20053;-73
2021/03/01 04:16:49;;;;;;;3.03;1.17;;;5.10;86.90;;;;;;4991448;28;20042;-74
2021/03/01 04:19:17;;;;;;;3.13;1.52;;;5.10;86.90;;;;;;4993035;28;20061;-73
2021/03/01 04:21:45;;;;;;;4.15;1.85;;;5.10;87.00;;;;;;4994806;28;20137;-73
2021/03/01 04:24:14;;;;;;;4.47;1.63;;;5.00;87.00;;;;;;4977183;28;20042;-75
2021/03/01 04:26:41;;;;;;;4.32;1.50;;;5.00;86.90;;;;;;4995260;28;20038;-75
2021/03/01 04:29:07;;;;;;;2.83;1.35;;;5.00;87.50;;;;;;4994838;28;20165;-75
2021/03/01 04:31:34;;;;;;;2.67;1.48;;;5.00;87.00;;;;;;4961035;28;20046;-75
2021/03/01 04:34:02;;;;;;;2.67;1.27;;;5.00;87.00;;;;;;4994492;28;20050;-73
2021/03/01 04:36:28;;;;;;;2.35;1.13;;;5.00;87.00;;;;;;4976933;28;20046;-73
2021/03/01 04:38:54;;;;;;;2.65;1.20;;;5.00;87.00;;;;;;4994532;28;20160;-75
2021/03/01 04:41:20;;;;;;;2.00;1.00;;;5.00;87.00;;;;;;4994314;28;20042;-75
2021/03/01 04:43:46;;;;;;;2.05;1.20;;;5.00;87.00;;;;;;4994782;28;20027;-75
2021/03/01 04:46:13;;;;;;;3.55;1.48;;;5.00;87.00;;;;;;4994306;28;20469;-75
2021/03/01 04:48:40;;;;;;;3.22;1.27;;;5.00;87.00;;;;;;4994422;28;20046;-75
2021/03/01 04:51:07;;;;;;;3.75;1.60;;;5.00;87.00;;;;;;4994468;28;20478;-75
2021/03/01 04:53:34;;;;;;;3.42;1.80;;;5.00;87.10;;;;;;4944688;28;20039;-74
2021/03/01 04:56:04;;;;;;;2.28;1.10;;;4.90;87.10;;;;;;4994113;28;20034;-73
2021/03/01 04:58:31;;;;;;;1.65;1.08;;;5.00;87.20;;;;;;4976250;28;20396;-74
2021/03/01 05:01:01;;;;;;;2.63;1.23;;;4.90;87.10;;;;;;4993942;28;20134;-73
2021/03/01 05:03:28;;;;;;;2.53;1.20;;;4.90;87.10;;;;;;4977355;28;20045;-75
2021/03/01 05:05:58;;;;;;;2.58;1.38;;;4.90;87.20;;;;;;4976950;28;20531;-74
2021/03/01 05:08:27;;;;;;;2.85;1.38;;;4.90;87.20;;;;;;4992922;28;20425;-74
2021/03/01 05:10:55;;;;;;;3.72;1.75;;;4.90;87.20;;;;;;4976320;28;20085;-74
2021/03/01 05:13:21;;;;;;;2.85;1.30;;;4.90;87.20;;;;;;4992870;28;20097;-74
2021/03/01 05:15:47;;;;;;;4.05;1.67;;;4.90;87.20;;;;;;4993741;28;20047;-74
2021/03/01 05:18:13;;;;;;;3.95;1.50;;;4.90;87.20;;;;;;4993872;28;20129;-73
2021/03/01 05:20:38;;;;;;;4.43;1.40;;;4.90;87.10;;;;;;4993514;28;20130;-74
2021/03/01 05:23:04;;;;;;;2.75;1.30;;;4.90;87.10;;;;;;4976779;28;20053;-74
2021/03/01 05:25:30;;;;;;;3.20;1.55;;;4.90;87.10;;;;;;4994295;28;20129;-74
2021/03/01 05:27:56;;;;;;;3.38;1.42;;;4.80;87.10;;;;;;4993669;28;20092;-74
2021/03/01 05:30:22;;;;;;;4.35;1.77;;;4.90;87.10;;;;;;4974957;28;20466;-74
2021/03/01 05:32:48;;;;;;;3.40;1.63;;;4.80;87.00;;;;;;4993640;28;20084;-74
2021/03/01 05:35:14;;;;;;;3.58;1.70;;;4.90;87.10;;;;;;4976537;28;20038;-73
2021/03/01 05:37:40;;;;;;;4.63;2.03;;;4.80;87.10;;;;;;4994239;28;20034;-74
2021/03/01 05:40:06;;;;;;;3.83;1.73;;;4.80;87.10;;;;;;4994145;28;20070;-74
2021/03/01 05:42:35;;;;;;;5.28;2.05;;;4.80;87.10;;;;;;4993648;28;20030;-74
2021/03/01 05:45:03;;;;;;;4.72;2.03;;;4.80;87.10;;;;;;4976110;28;20039;-73
2021/03/01 05:47:31;;;;;;;4.97;2.20;;;4.80;87.20;;;;;;4993530;28;20030;-73
2021/03/01 05:49:59;;;;;;;5.05;2.00;;;4.70;87.20;;;;;;4994080;28;20035;-74
2021/03/01 05:52:28;;;;;;;4.15;1.70;;;4.70;87.20;;;;;;4993400;28;20125;-74
2021/03/01 05:54:55;;;;;;;4.72;2.08;;;4.70;87.30;;;;;;4976698;28;20162;-74
2021/03/01 05:57:23;;;;;;;4.93;2.20;;;4.70;87.20;;;;;;4975885;28;20046;-75
2021/03/01 05:59:49;;;;;;;4.32;2.00;;;4.70;87.20;;;;;;4993876;28;20404;-75
2021/03/01 06:02:17;;;;;;;4.50;1.80;;;4.70;87.30;;;;;;4993577;28;20493;-74
2021/03/01 06:04:43;;;;;;;3.38;1.80;;;4.50;87.20;;;;;;4993233;28;20125;-74
2021/03/01 06:07:09;;;;;;;2.97;1.42;;;4.60;87.30;;;;;;4975845;28;20035;-74
2021/03/01 06:09:35;;;;;;;4.63;1.83;;;4.60;87.70;;;;;;4975832;28;20034;-74
2021/03/01 06:12:01;;;;;;;4.35;2.03;;;4.60;87.50;;;;;;4994019;28;20022;-74
2021/03/01 06:14:26;;;;;;;4.68;1.98;;;4.50;87.40;;;;;;4993198;28;20057;-74
2021/03/01 06:17:11;;;;;;;4.22;1.98;;;4.50;87.40;;;;;;4993682;28;20519;-73
2021/03/01 06:19:55;;;;;;;4.63;1.90;;;4.50;87.50;;;;;;4993014;28;20074;-74
2021/03/01 06:22:25;;;;;;;3.55;1.80;;;4.50;87.50;;;;;;4959979;28;20101;-75
2021/03/01 06:25:08;;;;;;;5.10;1.98;;;4.40;87.50;;;;;;4975572;28;20477;-75
2021/03/01 06:27:55;;;;;;;3.67;1.40;;;4.40;87.50;;;;;;4993140;28;20035;-73
2021/03/01 06:30:24;;;;;;;3.50;1.52;;;4.40;87.60;;;;;;4960192;28;20485;-73
2021/03/01 06:33:18;;;;;;;3.42;1.50;;;4.40;87.60;;;;;;4993268;28;20034;-74
2021/03/01 06:35:52;;;;;;;4.22;1.80;;;4.40;87.70;;;;;;4992721;28;20034;-74
2021/03/01 06:38:30;;;;;;;3.33;1.50;;;4.40;87.60;;;;;;4993236;28;20038;-74
2021/03/01 06:41:11;;;;;;;4.60;2.00;;;4.30;87.50;;;;;;4975306;28;20051;-74
2021/03/01 06:43:39;;;;;;;3.83;1.50;;;4.40;87.60;;;;;;4974867;28;20059;-74
2021/03/01 06:46:07;;;;;;;4.15;1.70;;;4.30;87.60;;;;;;4975381;28;20492;-74
2021/03/01 06:48:33;;;;;;;4.72;1.90;;;4.30;88.30;;;;;;4992508;28;20485;-74
2021/03/01 06:50:59;;;;;;;2.88;1.30;;;4.30;87.70;;;;;;4992716;28;20059;-74
2021/03/01 06:53:25;;;;;;;4.35;1.95;;;4.30;87.60;;;;;;4992960;28;20050;-74
2021/03/01 06:56:09;;;;;;;4.13;1.65;;;4.30;87.60;;;;;;4959382;28;20065;-74
2021/03/01 06:58:39;;;;;;;4.03;1.60;;;4.30;87.70;;;;;;4992737;28;20049;-74
2021/03/01 07:01:13;;;;;;;4.18;1.63;;;4.30;87.70;;;;;;4992162;28;20053;-75
2021/03/01 07:03:40;;;;;;;2.88;1.40;;;4.20;87.70;;;;;;4992573;28;20117;-74
2021/03/01 07:06:07;;;;;;;3.47;1.50;;;4.20;87.70;;;;;;4974968;28;20035;-74
2021/03/01 07:08:35;;;;;;;3.47;1.45;;;4.20;87.70;;;;;;4992241;28;20448;-74
2021/03/01 07:11:01;;;;;;;4.25;1.80;;;4.20;87.70;;;;;;4958643;28;20469;-76
2021/03/01 07:13:29;;;;;;;3.67;1.48;;;4.20;87.80;;;;;;4992002;28;20555;-75
2021/03/01 07:15:56;;;;;;;4.07;1.80;;;4.10;87.80;;;;;;4991956;28;20100;-75
2021/03/01 07:18:23;;;;;;;3.08;1.45;;;4.10;87.90;;;;;;4975426;28;20061;-75
2021/03/01 07:20:49;;;;;;;4.90;1.80;;;4.00;87.90;;;;;;4991039;28;20038;-75
2021/03/01 07:23:16;;;;;;;3.20;1.50;;;4.00;87.90;;;;;;4991912;28;20901;-75
2021/03/01 07:25:44;;;;;;;6.00;2.20;;;3.90;87.90;;;;;;4958618;28;20035;-75
2021/03/01 07:28:13;;;;;;;3.47;1.45;;;3.90;88.00;;;;;;4974663;28;20035;-75
2021/03/01 07:30:43;;;;;;;4.35;1.88;;;3.90;88.10;;;;;;4991284;28;20062;-75
2021/03/01 07:33:13;;;;;;;3.30;1.48;;;3.90;88.20;;;;;;4958769;28;20038;-76
2021/03/01 07:35:39;;;;;;;4.07;1.83;;;3.90;88.10;;;;;;4992783;28;20100;-76
2021/03/01 07:38:05;;;;;;;3.25;1.35;;;3.90;88.10;;;;;;4992099;28;20092;-77
2021/03/01 07:40:31;;;;;;;3.97;1.92;;;3.90;88.10;;;;;;4958277;28;20133;-77
2021/03/01 07:42:57;;;;;;;3.53;1.65;;;3.90;88.10;;;;;;4974925;28;20612;-77
2021/03/01 07:45:23;;;;;;;2.90;1.35;;;3.90;88.10;;;;;;4974439;28;20042;-76
2021/03/01 07:47:49;;;;;;;3.55;1.50;;;3.80;88.10;;;;;;4974362;28;20046;-77
2021/03/01 07:50:34;;;;;;;3.60;1.55;;;3.90;88.20;;;;;;4991896;28;20050;-77
2021/03/01 07:52:59;;;;;;;3.05;1.30;;;3.90;88.10;;;;;;4942746;28;20042;-76
2021/03/01 07:55:26;;;;;;;4.28;1.67;;;4.00;88.10;;;;;;4995719;28;20049;-75
2021/03/01 07:58:01;;;;;;;3.15;1.50;;;3.90;88.00;;;;;;4961398;28;20104;-74
2021/03/01 08:00:30;;;;;;;4.10;1.77;;;3.90;87.90;;;;;;4995308;28;20038;-75
2021/03/01 08:02:56;;;;;;;3.28;1.45;;;3.90;87.90;;;;;;4993463;28;20042;-76
2021/03/01 08:05:28;;;;;;;3.45;1.60;;;3.90;87.90;;;;;;4961430;28;20105;-76
2021/03/01 08:07:55;;;;;;;3.35;1.52;;;3.90;87.90;;;;;;4977274;28;20096;-78
2021/03/01 08:10:42;;;;;;;4.53;1.80;;;3.90;88.00;;;;;;4961647;28;20058;-75
2021/03/01 08:13:08;;;;;;;2.33;1.15;;;3.90;88.00;;;;;;4981375;28;20388;-76
2021/03/01 08:15:43;;;;;;;3.75;1.58;;;4.00;87.90;;;;;;4978082;28;20081;-77
2021/03/01 08:18:10;;;;;;;3.25;1.33;;;4.00;88.00;;;;;;4961776;28;20042;-76
2021/03/01 08:20:38;;;;;;;2.47;1.20;;;4.00;87.80;;;;;;4977964;28;20050;-78
2021/03/01 08:23:14;;;;;;;2.60;1.35;;;4.00;87.90;;;;;;4994375;28;20378;-74
2021/03/01 08:25:53;;;;;;;3.33;1.50;;;4.10;87.90;;;;;;4979255;28;20121;-77
2021/03/01 08:28:43;;;;;;;3.20;1.63;;;4.10;87.80;;;;;;4977674;28;20039;-76
2021/03/01 08:31:19;;;;;;;2.83;1.30;;;4.10;87.80;;;;;;4964746;28;20058;-76
2021/03/01 08:33:45;;;;;;;2.97;1.30;;;4.10;87.70;;;;;;4994064;28;20131;-76
2021/03/01 08:36:22;;;;;;;3.70;1.60;;;4.10;87.60;;;;;;4961392;28;20399;-75
2021/03/01 08:38:50;;;;;;;3.70;1.48;;;4.20;87.60;;;;;;4981401;28;20130;-77
2021/03/01 08:41:18;;;;;;;4.03;1.50;;;4.20;87.50;;;;;;4963188;28;20082;-78
2021/03/01 08:43:48;;;;;;;5.10;2.10;;;4.30;87.50;;;;;;4978742;28;20080;-79
2021/03/01 08:46:19;;;;;;;4.70;1.67;;;4.30;87.50;;;;;;4945297;28;20042;-80
2021/03/01 08:48:48;;;;;;;3.50;1.55;;;4.20;87.50;;;;;;4976986;28;20057;-79
2021/03/01 08:51:16;;;;;;;5.90;1.95;;;4.30;87.60;;;;;;4976702;28;20035;-78
2021/03/01 08:53:42;;;;;;;2.63;1.20;;;4.30;87.60;;;;;;4994584;28;20101;-79
2021/03/01 08:56:19;;;;;;;4.13;1.50;;;4.30;87.50;;;;;;4945748;28;20042;-79
2021/03/01 08:58:45;;;;;;;4.35;1.90;;;4.40;87.50;;;;;;4976739;28;20050;-76
2021/03/01 09:01:11;;;;;;;3.53;1.60;;;4.40;87.50;;;;;;4960584;28;20054;-76
2021/03/01 09:03:37;;;;;;;3.75;1.73;;;4.40;87.50;;;;;;4976778;28;20405;-77
2021/03/01 09:06:12;;;;;;;3.97;1.52;;;4.50;87.50;;;;;;4994165;28;20100;-77
2021/03/01 09:08:40;;;;;;;3.63;1.60;;;4.50;87.50;;;;;;4994056;28;20037;-76
2021/03/01 09:11:13;;;;;;;2.47;1.20;;;4.60;87.40;;;;;;4940403;28;20042;-77
2021/03/01 09:13:41;;;;;;;4.00;1.70;;;4.70;87.40;;;;;;4993085;28;20066;-74
2021/03/01 09:16:10;;;;;;;3.25;1.20;;;4.60;87.40;;;;;;4993727;28;20133;-77
2021/03/01 09:18:37;;;;;;;3.03;1.27;;;4.60;87.30;;;;;;4993819;28;20042;-75
2021/03/01 09:21:05;;;;;;;3.05;1.35;;;4.60;87.20;;;;;;4994033;28;20053;-76
2021/03/01 09:23:43;;;;;;;5.22;1.67;;;4.70;87.30;;;;;;4976571;28;20043;-79
2021/03/01 09:26:19;;;;;;;5.35;2.10;;;4.70;87.30;;;;;;4961672;28;20093;-76
2021/03/01 09:28:46;;;;;;;3.70;1.70;;;4.70;87.30;;;;;;4976470;28;20069;-77
2021/03/01 09:34:01;;;;;;;4.10;1.70;;;4.70;87.40;;;;;;4901780;29;20052;-78
2021/03/01 09:36:29;;;;;;;2.80;1.45;;;4.80;87.30;;;;;;4898757;29;20040;-77
2021/03/01 09:38:55;;;;;;;3.72;1.60;;;4.80;87.20;;;;;;4915104;29;20048;-79
2021/03/01 09:44:35;;;;;;;3.60;1.65;;;4.80;87.10;;;;;;4828704;29;20049;-82
2021/03/01 09:47:06;;;;;;;4.65;1.45;;;4.90;87.10;;;;;;4840061;29;20050;-80
2021/03/01 09:49:47;;;;;;;3.90;1.60;;;4.90;87.00;;;;;;4839429;29;20470;-83
2021/03/01 09:52:16;;;;;;;5.72;2.28;;;4.80;86.90;;;;;;4834764;29;20055;-83
2021/03/01 09:54:42;;;;;;;3.22;1.50;;;4.80;86.90;;;;;;4855150;29;20054;-79
2021/03/01 09:57:08;;;;;;;3.95;1.50;;;4.90;87.10;;;;;;4839951;29;20508;-79
2021/03/01 09:59:41;;;;;;;4.57;1.58;;;4.90;87.10;;;;;;4855613;29;20159;-78
2021/03/01 10:02:13;;;;;;;2.30;1.35;;;4.90;87.00;;;;;;4839697;29;20050;-78
2021/03/01 10:04:39;;;;;;;3.83;1.42;;;4.90;87.20;;;;;;4860038;29;20047;-80
2021/03/01 10:07:24;;;;;;;3.25;1.30;;;4.90;87.10;;;;;;4879742;29;20108;-79
2021/03/01 10:09:54;;;;;;;2.30;1.10;;;5.00;87.00;;;;;;4880438;29;20143;-78
2021/03/01 10:12:24;;;;;;;3.53;1.33;;;5.10;86.90;;;;;;4896653;28;20052;-78
2021/03/01 10:18:11;;;;;;;3.90;1.48;;;5.20;86.50;;;;;;4857320;29;20048;-78
2021/03/01 10:20:56;;;;;;;3.78;1.50;;;5.30;86.40;;;;;;4842585;29;20049;-82
2021/03/01 10:23:28;;;;;;;2.38;1.20;;;5.40;86.50;;;;;;4842869;29;20171;-80
2021/03/01 10:26:21;;;;;;;4.03;1.45;;;5.50;86.40;;;;;;4842226;29;20034;-80
2021/03/01 10:29:00;;;;;;;2.80;1.33;;;5.50;86.30;;;;;;4844049;29;20044;-82
2021/03/01 10:31:36;;;;;;;3.72;1.67;;;5.60;86.20;;;;;;4842360;29;20052;-80
2021/03/01 10:34:06;;;;;;;3.85;1.70;;;5.40;86.00;;;;;;4841991;29;20083;-79
2021/03/01 10:36:34;;;;;;;3.42;1.42;;;5.50;86.20;;;;;;4842813;29;20045;-79
2021/03/01 10:39:14;;;;;;;3.13;1.52;;;5.50;86.30;;;;;;4843201;29;20045;-80
2021/03/01 10:41:43;;;;;;;4.47;1.92;;;5.50;86.30;;;;;;4864063;29;20048;-79
2021/03/01 10:44:10;;;;;;;2.90;1.40;;;5.40;86.30;;;;;;4898575;29;20052;-80
2021/03/01 10:46:49;;;;;;;4.00;1.70;;;5.40;86.50;;;;;;4882643;29;20044;-77
2021/03/01 10:49:23;;;;;;;4.00;1.38;;;5.40;87.00;;;;;;4883251;29;20506;-80
2021/03/01 10:51:51;;;;;;;3.97;1.70;;;5.40;86.40;;;;;;4898279;29;20044;-80
2021/03/01 10:54:18;;;;;;;3.85;1.77;;;5.50;86.50;;;;;;4893005;29;20154;-78
2021/03/01 10:56:44;;;;;;;3.28;1.40;;;5.50;86.40;;;;;;4919751;29;20054;-79
2021/03/01 10:59:10;;;;;;;3.58;1.67;;;5.60;86.20;;;;;;4919879;29;20116;-80
2021/03/01 11:01:40;;;;;;;3.45;1.30;;;5.60;86.20;;;;;;4936438;29;20058;-80
2021/03/01 11:04:07;;;;;;;3.15;1.15;;;5.80;86.10;;;;;;4936841;29;20055;-80
2021/03/01 11:06:33;;;;;;;3.13;1.48;;;5.80;86.00;;;;;;4951717;29;20174;-81
2021/03/01 11:09:01;;;;;;;2.78;1.30;;;5.90;86.00;;;;;;4935829;29;20501;-77
2021/03/01 11:11:27;;;;;;;2.42;1.40;;;6.00;85.90;;;;;;4951741;29;20128;-79
2021/03/01 11:13:53;;;;;;;2.28;1.17;;;6.00;85.70;;;;;;4919906;29;20393;-78
2021/03/01 11:16:19;;;;;;;3.05;1.50;;;6.00;85.70;;;;;;4951649;29;20130;-78
2021/03/01 11:18:45;;;;;;;3.38;1.35;;;6.30;85.80;;;;;;4935495;29;20496;-77
2021/03/01 11:24:56;;;;;;;2.67;1.42;;;6.20;85.60;;;;;;4886149;29;20136;-86
2021/03/01 11:27:27;;;;;;;3.25;1.67;;;6.10;85.40;;;;;;4913232;29;20148;-79
2021/03/01 11:29:53;;;;;;;3.50;1.40;;;6.20;85.60;;;;;;4914797;29;20091;-79
2021/03/01 11:32:18;;;;;;;2.78;1.50;;;6.30;85.60;;;;;;4916960;29;20036;-78
2021/03/01 11:34:44;;;;;;;2.55;1.30;;;6.40;85.50;;;;;;4920768;29;20077;-79
2021/03/01 11:37:10;;;;;;;3.50;1.50;;;6.50;85.20;;;;;;4917371;29;20041;-78
2021/03/01 11:39:35;;;;;;;3.95;1.73;;;6.50;85.10;;;;;;4916642;29;20044;-82
2021/03/01 11:42:12;;;;;;;2.67;1.45;;;6.60;85.10;;;;;;4916713;29;20056;-82
2021/03/01 11:44:43;;;;;;;2.95;1.40;;;6.80;85.10;;;;;;4895923;29;20048;-81
2021/03/01 11:47:09;;;;;;;1.95;1.13;;;6.80;84.90;;;;;;4914228;29;20056;-77
2021/03/01 11:49:34;;;;;;;2.22;1.10;;;6.90;84.80;;;;;;4898112;29;20553;-77
2021/03/01 11:52:00;;;;;;;2.83;1.38;;;6.90;84.70;;;;;;4897740;29;20519;-77
2021/03/01 11:54:26;;;;;;;3.40;1.70;;;7.00;84.50;;;;;;4913242;29;20041;-79
2021/03/01 11:56:52;;;;;;;3.13;1.40;;;7.00;84.40;;;;;;4898275;29;20411;-77
2021/03/01 11:59:18;;;;;;;2.65;1.40;;;7.00;84.50;;;;;;4897188;29;20530;-79
2021/03/01 12:01:46;;;;;;;2.90;1.33;;;7.10;84.50;;;;;;4927400;29;20040;-79
2021/03/01 12:04:12;;;;;;;3.42;1.45;;;7.10;84.60;;;;;;4923309;29;20039;-80
2021/03/01 12:06:37;;;;;;;3.22;1.70;;;7.10;84.50;;;;;;4954849;29;20047;-79
2021/03/01 12:09:03;;;;;;;4.00;1.63;;;7.20;84.50;;;;;;4924932;28;20046;-79
2021/03/01 12:11:29;;;;;;;3.40;1.55;;;7.20;84.30;;;;;;4978572;28;20050;-80
2021/03/01 12:13:55;;;;;;;2.53;1.20;;;7.20;84.20;;;;;;4961577;28;20054;-79
2021/03/01 12:16:20;;;;;;;4.07;1.70;;;7.30;84.10;;;;;;4977926;28;20038;-78
2021/03/01 12:18:46;;;;;;;3.20;1.30;;;7.40;84.10;;;;;;4961410;28;20038;-79
2021/03/01 12:21:13;;;;;;;2.00;1.17;;;7.30;84.00;;;;;;4961195;28;20101;-80
2021/03/01 12:24:08;;;;;;;4.78;2.00;;;7.30;83.90;;;;;;4977364;28;20044;-79
2021/03/01 12:26:34;;;;;;;3.78;1.77;;;7.30;84.00;;;;;;4989056;28;20042;-76
2021/03/01 12:29:00;;;;;;;3.40;1.38;;;7.30;84.30;;;;;;4993107;28;20108;-77
2021/03/01 12:31:26;;;;;;;3.53;1.58;;;7.30;84.30;;;;;;4977035;28;20519;-77
2021/03/01 12:33:52;;;;;;;2.63;1.23;;;7.50;84.50;;;;;;4993673;28;20555;-77
2021/03/01 12:36:18;;;;;;;2.45;1.33;;;7.70;84.10;;;;;;4993354;28;20086;-78
2021/03/01 12:38:45;;;;;;;3.95;1.50;;;8.00;83.80;;;;;;4976911;28;20031;-77
2021/03/01 12:41:11;;;;;;;3.35;1.40;;;8.10;83.20;;;;;;4992657;28;20050;-81
2021/03/01 12:43:38;;;;;;;2.95;1.48;;;8.20;83.00;;;;;;4976753;28;20077;-80
2021/03/01 12:46:06;;;;;;;2.50;1.30;;;8.40;82.90;;;;;;4979276;28;20122;-82
2021/03/01 12:48:33;;;;;;;2.10;1.23;;;8.50;82.60;;;;;;4997679;28;20049;-81
2021/03/01 12:51:01;;;;;;;2.53;1.20;;;8.50;82.30;;;;;;4978730;28;20042;-81
2021/03/01 12:53:29;;;;;;;2.40;1.23;;;8.60;82.20;;;;;;5001139;28;20030;-78
2021/03/01 12:55:55;;;;;;;3.72;1.80;;;8.70;82.40;;;;;;5003171;28;20554;-77
2021/03/01 12:58:20;;;;;;;3.97;1.52;;;8.80;82.20;;;;;;5000798;28;20042;-78
2021/03/01 13:00:47;;;;;;;2.47;1.60;;;8.90;82.20;;;;;;4993169;28;20536;-77
2021/03/01 13:03:16;;;;;;;2.70;1.40;;;8.90;81.80;;;;;;4993047;28;20037;-79
2021/03/01 13:05:41;;;;;;;2.50;1.55;;;9.00;81.90;;;;;;4994530;28;20056;-80
2021/03/01 13:08:10;;;;;;;3.00;1.58;;;9.10;81.90;;;;;;4993730;28;20046;-81
2021/03/01 13:10:46;;;;;;;2.95;1.60;;;9.00;81.70;;;;;;4980339;28;20030;-80
2021/03/01 13:13:13;;;;;;;2.67;1.40;;;9.10;81.70;;;;;;4960577;28;20035;-80
2021/03/01 13:15:39;;;;;;;4.28;2.00;;;9.20;81.70;;;;;;4976635;28;20042;-79
2021/03/01 13:18:05;;;;;;;3.28;1.60;;;9.30;81.70;;;;;;4993631;28;20045;-80